createdAt,value
2023-03-13T00:00:45.430Z,11.70
2023-03-13T00:03:17.152Z,11.86
2023-03-13T00:05:48.741Z,11.82
2023-03-13T00:08:20.522Z,12.32
2023-03-13T00:10:52.584Z,12.48
2023-03-13T00:13:24.121Z,12.12
2023-03-13T00:16:10.909Z,11.93
2023-03-13T00:18:52.085Z,12.15
2023-03-13T00:21:26.934Z,12.03
2023-03-13T00:24:00.280Z,12.47
2023-03-13T00:26:31.871Z,11.81
2023-03-13T00:29:03.498Z,11.74
2023-03-13T00:31:35.119Z,12.41
2023-03-13T00:34:06.768Z,12.52
2023-03-13T00:36:38.422Z,12.42
2023-03-13T00:39:10.041Z,12.51
2023-03-13T00:41:41.651Z,12.55
2023-03-13T00:44:13.265Z,12.56
2023-03-13T00:46:44.817Z,12.14
2023-03-13T00:49:16.362Z,12.13
2023-03-13T00:51:48.028Z,12.22
2023-03-13T00:54:19.667Z,12.01
2023-03-13T00:56:51.155Z,12.23
2023-03-13T00:59:22.745Z,12.06
2023-03-13T01:01:54.400Z,12.33
2023-03-13T01:04:28.055Z,12.35
2023-03-13T01:06:59.614Z,12.37
2023-03-13T01:09:31.216Z,12.34
2023-03-13T01:12:02.860Z,12.19
2023-03-13T01:14:34.473Z,11.74
2023-03-13T01:17:06.000Z,11.93
2023-03-13T01:19:37.558Z,12.11
2023-03-13T01:22:11.291Z,12.24
2023-03-13T01:24:42.817Z,12.23
2023-03-13T01:27:14.389Z,12.47
2023-03-13T01:29:45.917Z,12.52
2023-03-13T01:32:17.483Z,12.67
2023-03-13T01:34:49.150Z,12.29
2023-03-13T01:37:20.640Z,12.20
2023-03-13T01:39:52.147Z,12.18
2023-03-13T01:42:23.737Z,12.33
2023-03-13T01:44:57.489Z,12.43
2023-03-13T01:47:29.152Z,12.66
2023-03-13T01:50:00.676Z,12.63
2023-03-13T01:52:32.815Z,12.35
2023-03-13T01:55:12.324Z,12.26
2023-03-13T01:57:50.852Z,12.28
2023-03-13T02:00:36.124Z,12.24
2023-03-13T02:03:14.654Z,12.29
2023-03-13T02:05:48.758Z,11.92
2023-03-13T02:08:31.447Z,12.25
2023-03-13T02:11:28.266Z,12.22
2023-03-13T02:14:02.358Z,12.26
2023-03-13T02:16:36.081Z,12.33
2023-03-13T02:19:21.186Z,12.45
2023-03-13T02:22:10.029Z,12.52
2023-03-13T02:24:48.505Z,12.57
2023-03-13T02:27:20.077Z,12.67
2023-03-13T02:29:52.923Z,12.73
2023-03-13T02:32:30.407Z,12.69
2023-03-13T02:35:08.888Z,12.74
2023-03-13T02:37:47.961Z,12.63
2023-03-13T02:40:31.003Z,12.65
2023-03-13T02:43:11.097Z,12.35
2023-03-13T02:45:42.694Z,12.24
2023-03-13T02:48:14.243Z,12.47
2023-03-13T02:50:47.814Z,12.35
2023-03-13T02:53:19.384Z,12.49
2023-03-13T02:55:50.909Z,12.67
2023-03-13T02:58:25.582Z,12.64
2023-03-13T03:00:57.099Z,12.38
2023-03-13T03:03:28.820Z,12.60
2023-03-13T03:06:00.753Z,12.58
2023-03-13T03:08:33.495Z,12.25
2023-03-13T03:11:05.486Z,12.31
2023-03-13T03:13:37.312Z,12.30
2023-03-13T03:16:12.140Z,12.33
2023-03-13T03:18:44.062Z,12.37
2023-03-13T03:21:15.646Z,11.95
2023-03-13T03:23:47.332Z,12.03
2023-03-13T03:26:18.964Z,12.26
2023-03-13T03:28:50.886Z,12.38
2023-03-13T03:31:22.549Z,12.51
2023-03-13T03:33:54.106Z,12.51
2023-03-13T03:36:26.624Z,12.32
2023-03-13T03:38:59.097Z,12.33
2023-03-13T03:41:31.119Z,12.28
2023-03-13T03:44:03.487Z,12.15
2023-03-13T03:46:35.036Z,12.38
2023-03-13T03:49:06.705Z,12.17
2023-03-13T03:51:38.321Z,12.28
2023-03-13T03:54:09.862Z,12.30
2023-03-13T03:56:44.434Z,12.34
2023-03-13T03:59:16.036Z,12.26
2023-03-13T04:01:47.864Z,12.31
2023-03-13T04:04:19.413Z,12.36
2023-03-13T04:06:50.966Z,12.20
2023-03-13T04:09:22.688Z,12.32
2023-03-13T04:11:54.332Z,12.37
2023-03-13T04:14:25.832Z,12.20
2023-03-13T04:16:57.700Z,12.42
2023-03-13T04:19:29.179Z,12.71
2023-03-13T04:22:00.933Z,12.67
2023-03-13T04:24:35.338Z,12.88
2023-03-13T04:27:07.050Z,12.94
2023-03-13T04:29:38.702Z,12.48
2023-03-13T04:32:10.966Z,13.00
2023-03-13T04:34:42.548Z,13.03
2023-03-13T04:37:14.059Z,12.88
2023-03-13T04:39:45.580Z,12.44
2023-03-13T04:42:17.208Z,12.38
2023-03-13T04:44:48.809Z,12.59
2023-03-13T04:47:20.342Z,12.63
2023-03-13T04:49:51.937Z,12.26
2023-03-13T04:52:23.524Z,12.39
2023-03-13T04:54:55.025Z,12.78
2023-03-13T04:57:26.613Z,13.00
2023-03-13T04:59:58.142Z,13.07
2023-03-13T05:02:29.883Z,13.10
2023-03-13T05:05:01.537Z,13.21
2023-03-13T05:07:33.262Z,13.10
2023-03-13T05:10:05.229Z,13.52
2023-03-13T05:12:36.745Z,13.64
2023-03-13T05:15:09.041Z,13.63
2023-03-13T05:17:40.528Z,13.20
2023-03-13T05:20:12.506Z,13.16
2023-03-13T05:22:44.097Z,13.27
2023-03-13T05:25:15.809Z,13.29
2023-03-13T05:27:47.350Z,13.31
2023-03-13T05:30:19.658Z,13.39
2023-03-13T05:32:51.325Z,13.64
2023-03-13T05:35:23.163Z,13.15
2023-03-13T05:37:54.808Z,12.88
2023-03-13T05:40:26.482Z,13.23
2023-03-13T05:42:58.069Z,13.17
2023-03-13T05:45:29.753Z,13.24
2023-03-13T05:48:01.938Z,13.45
2023-03-13T05:50:33.545Z,13.60
2023-03-13T05:53:05.117Z,13.33
2023-03-13T05:55:36.759Z,13.41
2023-03-13T05:58:08.264Z,13.48
2023-03-13T06:00:39.890Z,13.62
2023-03-13T06:03:13.887Z,13.20
2023-03-13T06:05:45.903Z,13.33
2023-03-13T06:08:17.383Z,13.35
2023-03-13T06:10:49.122Z,13.37
2023-03-13T06:13:20.788Z,13.45
2023-03-13T06:15:57.774Z,13.40
2023-03-13T06:18:29.533Z,13.20
2023-03-13T06:21:02.810Z,13.38
2023-03-13T06:23:35.833Z,13.20
2023-03-13T06:26:07.408Z,13.22
2023-03-13T06:28:38.955Z,13.12
2023-03-13T06:31:10.919Z,13.07
2023-03-13T06:33:42.474Z,13.33
2023-03-13T06:36:14.156Z,13.61
2023-03-13T06:38:45.757Z,13.41
2023-03-13T06:41:18.369Z,13.34
2023-03-13T06:43:50.142Z,13.58
2023-03-13T06:46:24.702Z,13.71
2023-03-13T06:48:58.116Z,13.65
2023-03-13T06:51:29.952Z,13.73
2023-03-13T06:54:03.662Z,13.60
2023-03-13T06:56:35.214Z,13.50
2023-03-13T06:59:06.814Z,13.47
2023-03-13T07:01:38.379Z,13.44
2023-03-13T07:04:13.663Z,13.35
2023-03-13T07:06:45.282Z,13.40
2023-03-13T07:09:16.917Z,13.62
2023-03-13T07:11:48.835Z,13.53
2023-03-13T07:14:21.022Z,13.08
2023-03-13T07:16:52.649Z,13.25
2023-03-13T07:19:24.408Z,13.37
2023-03-13T07:21:57.033Z,13.45
2023-03-13T07:24:28.819Z,13.33
2023-03-13T07:27:07.100Z,13.27
2023-03-13T07:29:39.384Z,13.26
2023-03-13T07:32:11.175Z,12.99
2023-03-13T07:34:44.610Z,12.91
2023-03-13T07:37:16.880Z,12.40
2023-03-13T07:39:48.385Z,12.46
2023-03-13T07:42:19.929Z,12.82
2023-03-13T07:44:52.947Z,12.26
2023-03-13T07:47:25.006Z,12.26
2023-03-13T07:49:56.563Z,12.80
2023-03-13T07:52:28.179Z,12.88
2023-03-13T07:54:59.774Z,12.74
2023-03-13T07:57:31.394Z,12.63
2023-03-13T08:00:03.993Z,12.87
2023-03-13T08:02:35.699Z,13.44
2023-03-13T08:05:07.781Z,13.97
2023-03-13T08:07:39.313Z,14.63
2023-03-13T08:10:11.397Z,15.25
2023-03-13T08:12:42.961Z,14.82
2023-03-13T08:15:14.535Z,15.69
2023-03-13T08:17:46.074Z,14.82
2023-03-13T08:20:19.006Z,14.73
2023-03-13T08:22:50.625Z,14.47
2023-03-13T08:25:22.504Z,13.19
2023-03-13T08:27:55.052Z,13.93
2023-03-13T08:30:26.742Z,13.72
2023-03-13T08:32:58.458Z,14.28
2023-03-13T08:35:30.524Z,14.17
2023-03-13T08:38:03.081Z,15.53
2023-03-13T08:40:34.619Z,16.21
2023-03-13T08:43:08.938Z,16.40
2023-03-13T08:45:40.496Z,16.63
2023-03-13T08:48:12.113Z,16.56
2023-03-13T08:50:43.639Z,16.63
2023-03-13T08:53:15.129Z,17.00
2023-03-13T08:55:53.917Z,18.58
2023-03-13T08:58:25.655Z,19.25
2023-03-13T09:01:09.629Z,19.76
2023-03-13T09:03:43.051Z,18.69
2023-03-13T09:06:14.848Z,18.66
2023-03-13T09:08:46.838Z,18.70
2023-03-13T09:11:21.245Z,18.29
2023-03-13T09:13:55.145Z,18.77
2023-03-13T09:16:32.695Z,19.83
2023-03-13T09:19:04.538Z,21.20
2023-03-13T09:21:39.195Z,20.48
2023-03-13T09:24:10.782Z,20.10
2023-03-13T09:27:00.143Z,19.70
2023-03-13T09:29:33.390Z,19.89
2023-03-13T09:32:05.428Z,18.32
2023-03-13T09:34:36.972Z,19.93
2023-03-13T09:37:08.912Z,20.54
2023-03-13T09:39:40.544Z,22.21
2023-03-13T09:42:21.754Z,22.20
2023-03-13T09:45:01.819Z,20.55
2023-03-13T09:47:50.421Z,22.48
2023-03-13T09:50:36.666Z,23.82
2023-03-13T09:53:44.616Z,23.15
2023-03-13T09:56:21.341Z,23.93
2023-03-13T09:59:30.538Z,24.04
2023-03-13T10:02:05.540Z,20.92
2023-03-13T10:04:48.036Z,23.80
2023-03-13T10:07:25.957Z,22.84
2023-03-13T10:10:00.189Z,23.14
2023-03-13T10:12:41.596Z,23.06
2023-03-13T10:15:42.868Z,24.64
2023-03-13T10:18:23.000Z,23.83
2023-03-13T10:21:01.606Z,24.03
2023-03-13T10:23:41.330Z,22.36
2023-03-13T10:26:36.339Z,23.47
2023-03-13T10:29:24.524Z,22.44
2023-03-13T10:32:02.422Z,22.70
2023-03-13T10:35:03.981Z,24.98
2023-03-13T10:37:45.918Z,25.74
2023-03-13T10:40:23.903Z,23.91
2023-03-13T10:43:07.861Z,25.40
2023-03-13T10:45:39.748Z,25.47
2023-03-13T10:48:23.399Z,25.13
2023-03-13T10:50:57.519Z,24.21
2023-03-13T10:53:28.967Z,25.14
2023-03-13T10:56:16.228Z,24.91
2023-03-13T10:58:51.800Z,23.40
2023-03-13T11:01:29.298Z,24.36
2023-03-13T11:04:28.029Z,20.68
2023-03-13T11:07:16.310Z,23.55
2023-03-13T11:10:19.733Z,24.18
2023-03-13T11:12:54.655Z,26.29
2023-03-13T11:15:52.036Z,25.63
2023-03-13T11:18:39.982Z,24.02
2023-03-13T11:21:25.597Z,26.37
2023-03-13T11:24:12.008Z,27.39
2023-03-13T11:27:19.867Z,27.48
2023-03-13T11:30:30.396Z,25.40
2023-03-13T11:33:10.168Z,26.78
2023-03-13T11:35:55.461Z,27.13
2023-03-13T11:38:42.789Z,26.42
2023-03-13T11:42:04.330Z,25.34
2023-03-13T11:45:21.642Z,24.66
2023-03-13T11:48:39.834Z,23.67
2023-03-13T11:51:20.210Z,23.59
2023-03-13T11:54:17.997Z,23.82
2023-03-13T11:56:59.139Z,23.58
2023-03-13T12:00:23.033Z,25.04
2023-03-13T12:03:29.225Z,27.26
2023-03-13T12:06:02.904Z,27.16
2023-03-13T12:08:39.019Z,27.69
2023-03-13T12:11:26.233Z,27.62
2023-03-13T12:14:33.812Z,29.12
2023-03-13T12:17:34.755Z,27.27
2023-03-13T12:21:09.560Z,28.72
2023-03-13T12:24:12.105Z,27.81
2023-03-13T12:27:08.379Z,25.98
2023-03-13T12:30:03.149Z,25.62
2023-03-13T12:32:49.647Z,25.25
2023-03-13T12:35:33.278Z,25.99
2023-03-13T12:38:33.754Z,25.87
2023-03-13T12:41:18.539Z,25.69
2023-03-13T12:44:07.261Z,25.63
2023-03-13T12:47:09.777Z,27.68
2023-03-13T12:50:10.067Z,29.30
2023-03-13T12:53:09.548Z,29.23
2023-03-13T12:56:04.234Z,29.54
2023-03-13T12:58:49.387Z,28.14
2023-03-13T13:01:24.017Z,29.91
2023-03-13T13:04:07.895Z,27.55
2023-03-13T13:06:51.882Z,28.93
2023-03-13T13:10:03.875Z,28.77
2023-03-13T13:12:43.400Z,29.05
2023-03-13T13:15:28.845Z,29.16
2023-03-13T13:18:15.417Z,27.76
2023-03-13T13:21:14.668Z,28.70
2023-03-13T13:23:48.096Z,28.56
2023-03-13T13:26:29.641Z,27.83
2023-03-13T13:29:24.140Z,26.35
2023-03-13T13:32:00.489Z,24.56
2023-03-13T13:34:32.131Z,24.58
2023-03-13T13:37:23.830Z,25.34
2023-03-13T13:40:16.665Z,24.61
2023-03-13T13:42:54.070Z,24.91
2023-03-13T13:45:36.676Z,23.99
2023-03-13T13:48:39.753Z,24.94
2023-03-13T13:51:11.469Z,24.65
2023-03-13T13:54:02.552Z,25.34
2023-03-13T13:56:36.840Z,25.58
2023-03-13T13:59:20.680Z,26.70
2023-03-13T14:02:09.865Z,24.35
2023-03-13T14:04:54.241Z,23.69
2023-03-13T14:07:30.904Z,24.72
2023-03-13T14:10:33.823Z,25.05
2023-03-13T14:13:17.116Z,25.13
2023-03-13T14:15:53.017Z,24.56
2023-03-13T14:18:28.052Z,24.63
2023-03-13T14:21:13.876Z,25.76
2023-03-13T14:23:47.094Z,25.79
2023-03-13T14:26:25.211Z,25.57
2023-03-13T14:29:07.851Z,25.84
2023-03-13T14:31:39.919Z,25.31
2023-03-13T14:34:13.066Z,23.29
2023-03-13T14:37:04.529Z,23.74
2023-03-13T14:39:45.273Z,24.91
2023-03-13T14:42:18.792Z,24.41
2023-03-13T14:44:50.580Z,25.86
2023-03-13T14:47:32.746Z,27.36
2023-03-13T14:50:20.884Z,27.79
2023-03-13T14:53:05.343Z,27.79
2023-03-13T14:55:42.744Z,27.06
2023-03-13T14:58:20.481Z,25.22
2023-03-13T15:00:52.078Z,25.24
2023-03-13T15:03:30.598Z,24.83
2023-03-13T15:06:15.195Z,26.07
2023-03-13T15:09:14.828Z,26.11
2023-03-13T15:11:55.147Z,26.85
2023-03-13T15:14:37.790Z,26.87
2023-03-13T15:17:22.918Z,24.86
2023-03-13T15:19:57.809Z,24.46
2023-03-13T15:22:32.913Z,24.96
2023-03-13T15:25:15.080Z,24.89
2023-03-13T15:27:47.960Z,25.37
2023-03-13T15:30:25.260Z,26.44
2023-03-13T15:32:56.887Z,26.42
2023-03-13T15:35:32.359Z,27.16
2023-03-13T15:38:04.294Z,27.07
2023-03-13T15:40:35.949Z,26.41
2023-03-13T15:43:08.345Z,26.49
2023-03-13T15:45:43.362Z,26.29
2023-03-13T15:48:24.331Z,26.56
2023-03-13T15:51:02.687Z,26.35
2023-03-13T15:53:37.977Z,26.02
2023-03-13T15:56:19.829Z,25.94
2023-03-13T15:58:51.728Z,25.73
2023-03-13T16:01:23.349Z,25.68
2023-03-13T16:03:55.286Z,25.49
2023-03-13T16:06:32.972Z,25.46
2023-03-13T16:09:06.775Z,24.87
2023-03-13T16:11:38.283Z,24.91
2023-03-13T16:14:09.928Z,25.66
2023-03-13T16:16:41.539Z,26.22
2023-03-13T16:19:13.379Z,26.52
2023-03-13T16:21:48.383Z,26.70
2023-03-13T16:24:20.739Z,26.65
2023-03-13T16:26:52.224Z,25.99
2023-03-13T16:29:24.028Z,25.29
2023-03-13T16:31:55.522Z,24.89
2023-03-13T16:34:27.442Z,24.69
2023-03-13T16:36:58.950Z,24.74
2023-03-13T16:39:30.616Z,24.48
2023-03-13T16:42:02.223Z,24.32
2023-03-13T16:44:33.986Z,23.96
2023-03-13T16:47:31.004Z,23.59
2023-03-13T16:50:12.867Z,23.18
2023-03-13T16:52:47.837Z,22.66
2023-03-13T16:55:20.359Z,22.22
2023-03-13T16:57:52.317Z,22.23
2023-03-13T17:00:28.063Z,22.00
2023-03-13T17:02:59.774Z,21.84
2023-03-13T17:05:31.488Z,21.78
2023-03-13T17:08:03.659Z,21.39
2023-03-13T17:10:35.244Z,21.28
2023-03-13T17:13:06.867Z,21.07
2023-03-13T17:15:38.488Z,20.96
2023-03-13T17:18:10.167Z,20.91
2023-03-13T17:20:42.698Z,20.86
2023-03-13T17:23:14.270Z,20.73
2023-03-13T17:25:46.560Z,20.59
2023-03-13T17:28:18.105Z,20.28
2023-03-13T17:30:49.680Z,20.00
2023-03-13T17:33:21.210Z,19.77
2023-03-13T17:35:52.801Z,19.56
2023-03-13T17:38:24.451Z,19.48
2023-03-13T17:40:56.012Z,19.44
2023-03-13T17:43:27.538Z,19.40
2023-03-13T17:45:59.118Z,18.98
2023-03-13T17:48:30.616Z,18.70
2023-03-13T17:51:02.322Z,18.67
2023-03-13T17:53:33.855Z,19.03
2023-03-13T17:56:13.867Z,19.14
2023-03-13T17:58:46.944Z,18.51
2023-03-13T18:01:21.183Z,18.50
2023-03-13T18:03:52.849Z,18.39
2023-03-13T18:06:28.977Z,18.38
2023-03-13T18:09:07.723Z,18.70
2023-03-13T18:11:39.975Z,18.50
2023-03-13T18:14:14.701Z,18.54
2023-03-13T18:16:48.458Z,18.45
2023-03-13T18:19:23.860Z,18.22
2023-03-13T18:21:55.898Z,18.15
2023-03-13T18:24:27.432Z,18.08
2023-03-13T18:26:58.931Z,17.93
2023-03-13T18:29:30.517Z,17.74
2023-03-13T18:32:02.091Z,17.60
2023-03-13T18:34:35.061Z,17.44
2023-03-13T18:37:18.236Z,17.31
2023-03-13T18:39:49.999Z,17.50
2023-03-13T18:42:23.655Z,17.72
2023-03-13T18:44:55.173Z,17.85
2023-03-13T18:47:28.581Z,17.78
2023-03-13T18:50:00.161Z,17.04
2023-03-13T18:52:31.860Z,17.23
2023-03-13T18:55:03.640Z,16.84
2023-03-13T18:57:35.417Z,16.70
2023-03-13T19:00:33.680Z,16.37
2023-03-13T19:03:05.331Z,16.25
2023-03-13T19:05:36.806Z,16.02
2023-03-13T19:08:10.431Z,15.91
2023-03-13T19:10:42.035Z,16.39
2023-03-13T19:13:13.607Z,16.44
2023-03-13T19:15:45.147Z,16.28
2023-03-13T19:18:16.666Z,16.34
2023-03-13T19:20:49.845Z,16.44
2023-03-13T19:23:21.644Z,16.29
2023-03-13T19:25:53.455Z,16.34
2023-03-13T19:28:25.129Z,16.09
2023-03-13T19:30:56.660Z,15.89
2023-03-13T19:33:28.327Z,15.82
2023-03-13T19:36:00.343Z,15.77
2023-03-13T19:38:31.918Z,15.88
2023-03-13T19:41:03.655Z,15.92
2023-03-13T19:43:35.834Z,15.84
2023-03-13T19:46:22.537Z,15.78
2023-03-13T19:49:00.251Z,16.14
2023-03-13T19:51:31.928Z,16.33
2023-03-13T19:54:03.722Z,16.21
2023-03-13T19:56:36.506Z,16.31
2023-03-13T19:59:19.275Z,16.31
2023-03-13T20:01:50.905Z,16.27
2023-03-13T20:04:22.749Z,16.30
2023-03-13T20:06:54.367Z,16.28
2023-03-13T20:09:25.922Z,16.24
2023-03-13T20:11:57.425Z,16.21
2023-03-13T20:14:28.997Z,16.47
2023-03-13T20:17:00.560Z,16.64
2023-03-13T20:19:32.290Z,16.73
2023-03-13T20:22:05.198Z,16.70
2023-03-13T20:24:38.764Z,16.66
2023-03-13T20:27:10.320Z,16.67
2023-03-13T20:29:41.916Z,16.70
2023-03-13T20:32:13.669Z,16.75
2023-03-13T20:34:45.388Z,16.82
2023-03-13T20:37:16.979Z,16.94
2023-03-13T20:39:48.671Z,16.98
2023-03-13T20:42:20.904Z,17.03
2023-03-13T20:44:52.477Z,16.94
2023-03-13T20:47:24.216Z,16.87
2023-03-13T20:49:55.824Z,16.80
2023-03-13T20:52:27.402Z,16.92
2023-03-13T20:54:59.152Z,17.14
2023-03-13T20:57:30.637Z,16.82
2023-03-13T21:00:02.387Z,16.11
2023-03-13T21:02:33.884Z,15.31
2023-03-13T21:05:06.219Z,15.62
2023-03-13T21:07:37.816Z,15.50
2023-03-13T21:10:10.893Z,15.49
2023-03-13T21:12:42.374Z,15.28
2023-03-13T21:15:14.344Z,15.34
2023-03-13T21:17:45.914Z,15.53
2023-03-13T21:20:17.545Z,15.83
2023-03-13T21:22:49.302Z,16.08
2023-03-13T21:25:21.152Z,16.14
2023-03-13T21:27:52.930Z,16.13
2023-03-13T21:30:24.572Z,16.25
2023-03-13T21:32:56.114Z,16.30
2023-03-13T21:35:27.705Z,16.32
2023-03-13T21:37:59.489Z,16.14
2023-03-13T21:40:31.273Z,16.13
2023-03-13T21:43:04.027Z,16.09
2023-03-13T21:45:35.899Z,16.08
2023-03-13T21:48:07.502Z,15.94
2023-03-13T21:50:42.318Z,15.75
2023-03-13T21:53:13.868Z,15.72
2023-03-13T21:55:48.370Z,15.82
2023-03-13T21:58:19.963Z,16.03
2023-03-13T22:00:58.679Z,15.96
2023-03-13T22:03:31.837Z,16.00
2023-03-13T22:06:04.162Z,16.34
2023-03-13T22:08:35.716Z,16.12
2023-03-13T22:11:07.567Z,16.17
2023-03-13T22:13:39.480Z,15.74
2023-03-13T22:16:11.864Z,15.81
2023-03-13T22:18:43.951Z,15.71
2023-03-13T22:21:15.558Z,16.06
2023-03-13T22:23:47.413Z,16.26
2023-03-13T22:26:19.216Z,16.29
2023-03-13T22:28:50.928Z,16.27
2023-03-13T22:31:22.746Z,16.28
2023-03-13T22:33:54.530Z,16.09
2023-03-13T22:36:26.222Z,15.69
2023-03-13T22:38:58.015Z,15.15
2023-03-13T22:41:29.750Z,15.45
2023-03-13T22:44:01.366Z,15.79
2023-03-13T22:46:32.892Z,15.72
2023-03-13T22:49:04.472Z,15.61
2023-03-13T22:51:36.044Z,15.31
2023-03-13T22:54:07.649Z,14.74
2023-03-13T22:56:39.258Z,14.63
2023-03-13T22:59:10.878Z,13.98
2023-03-13T23:01:42.525Z,13.75
2023-03-13T23:04:14.410Z,13.71
2023-03-13T23:06:46.182Z,13.45
2023-03-13T23:09:17.702Z,13.42
2023-03-13T23:11:49.276Z,13.49
2023-03-13T23:14:23.969Z,13.76
2023-03-13T23:16:57.910Z,13.48
2023-03-13T23:19:36.854Z,13.71
2023-03-13T23:22:13.945Z,13.76
2023-03-13T23:24:50.100Z,13.74
2023-03-13T23:27:23.520Z,13.38
2023-03-13T23:29:57.491Z,13.24
2023-03-13T23:32:39.074Z,13.52
2023-03-13T23:35:13.928Z,13.77
2023-03-13T23:37:54.912Z,13.15
2023-03-13T23:40:30.341Z,13.31
2023-03-13T23:43:04.765Z,13.04
2023-03-13T23:45:37.793Z,12.55
2023-03-13T23:48:10.669Z,12.20
2023-03-13T23:50:45.612Z,12.16
2023-03-13T23:53:17.396Z,11.97
2023-03-13T23:55:58.463Z,12.01
2023-03-13T23:58:30.190Z,11.96
